Time;durP1;ratioP1;P1;durP2;ratioP2;P2;SDS_P1;SDS_P2;PMS_P1;PMS_P2;Temp;Humidity;BMP_temperature;BMP_pressure;BME280_temperature;BME280_humidity;BME280_pressure;Samples;Min_cycle;Max_cycle;Signal;HPM_P1;HPM_P2
2022/10/11 00:00:53;;;;;;;11.25;3.45;;;;;;;5.52;100.00;102287.53;5092729;28;20444;-57
2022/10/11 00:03:19;;;;;;;13.63;3.30;;;;;;;5.88;100.00;102355.00;5091558;28;20040;-57
2022/10/11 00:05:45;;;;;;;18.35;3.38;;;;;;;5.86;100.00;102357.63;5091374;28;20032;-58
2022/10/11 00:08:11;;;;;;;13.75;3.63;;;;;;;5.65;100.00;102316.44;5092132;28;20459;-54
2022/10/11 00:10:36;;;;;;;12.75;2.83;;;;;;;5.84;100.00;102361.91;5092652;28;20044;-54
2022/10/11 00:13:03;;;;;;;10.55;3.08;;;;;;;5.81;100.00;102361.03;5091588;28;20044;-58
2022/10/11 00:15:28;;;;;;;15.80;3.85;;;;;;;5.79;100.00;102367.94;5091275;28;20028;-60
2022/10/11 00:17:53;;;;;;;12.25;2.92;;;;;;;5.76;100.00;102360.06;5092940;28;20043;-54
2022/10/11 00:20:19;;;;;;;12.60;2.95;;;;;;;5.42;100.00;102303.97;5092238;28;20044;-56
2022/10/11 00:22:44;;;;;;;12.15;3.25;;;;;;;5.74;100.00;102375.75;5092195;28;20048;-54
2022/10/11 00:25:11;;;;;;;12.82;3.60;;;;;;;5.75;100.00;102368.78;5091258;28;20040;-58
2022/10/11 00:27:37;;;;;;;12.05;3.30;;;;;;;5.35;100.00;102299.50;5091019;28;20040;-54
2022/10/11 00:30:06;;;;;;;16.35;3.80;;;;;;;5.73;100.00;102360.03;5092216;28;20046;-51
2022/10/11 00:32:33;;;;;;;12.43;3.58;;;;;;;5.28;100.00;102292.47;5090986;28;20040;-56
2022/10/11 00:35:03;;;;;;;15.70;3.70;;;;;;;5.70;100.00;102371.31;5091514;28;20041;-57
2022/10/11 00:37:29;;;;;;;14.87;3.43;;;;;;;5.33;100.00;102304.72;5091074;28;20471;-57
2022/10/11 00:39:55;;;;;;;13.98;3.42;;;;;;;5.28;100.00;102305.53;5092340;28;20028;-56
2022/10/11 00:42:20;;;;;;;12.20;3.28;;;;;;;5.33;100.00;102307.34;5090937;28;20119;-57
2022/10/11 00:44:46;;;;;;;17.38;3.30;;;;;;;5.29;100.00;102307.25;5092475;28;20032;-57
2022/10/11 00:47:18;;;;;;;12.63;2.85;;;;;;;5.58;100.00;102372.06;5092325;28;20043;-58
2022/10/11 00:49:55;;;;;;;11.68;3.38;;;;;;;5.21;100.00;102307.19;5090962;28;20882;-57
2022/10/11 00:52:27;;;;;;;9.93;3.40;;;;;;;5.63;100.00;102387.81;5090864;28;20032;-51
2022/10/11 00:54:53;;;;;;;15.40;3.75;;;;;;;5.61;100.00;102381.66;5092090;28;20028;-58
2022/10/11 00:57:22;;;;;;;7.78;3.47;;;;;;;5.64;100.00;102371.25;5091009;28;20042;-57
2022/10/11 00:59:49;;;;;;;15.07;3.22;;;;;;;5.66;100.00;102365.19;5090631;28;20020;-60
2022/10/11 01:02:16;;;;;;;10.50;3.42;;;;;;;5.38;100.00;102320.44;5092192;28;20064;-59
2022/10/11 01:04:42;;;;;;;9.70;3.22;;;;;;;5.46;100.00;102347.50;5090378;28;20024;-59
2022/10/11 01:07:09;;;;;;;14.07;3.47;;;;;;;5.55;100.00;102358.97;5092035;28;20088;-55
2022/10/11 01:09:34;;;;;;;10.07;3.42;;;;;;;5.59;100.00;102381.66;5091913;28;20040;-56
2022/10/11 01:12:02;;;;;;;15.70;3.60;;;;;;;5.17;100.00;102315.81;5091017;28;20028;-59
2022/10/11 01:14:54;;;;;;;16.02;4.00;;;;;;;5.52;100.00;102378.94;5092011;28;20096;-59
2022/10/11 01:17:34;;;;;;;11.02;2.50;;;;;;;5.58;100.00;102397.28;5091946;28;20067;-57
2022/10/11 01:20:14;;;;;;;13.15;3.63;;;;;;;5.53;100.00;102401.59;5092105;28;20470;-56
2022/10/11 01:23:04;;;;;;;9.18;3.03;;;;;;;5.52;100.00;102389.38;5094387;28;20048;-57
2022/10/11 01:25:57;;;;;;;11.02;3.22;;;;;;;5.46;100.00;102394.53;5095697;28;20032;-52
2022/10/11 01:28:37;;;;;;;10.25;3.03;;;;;;;5.42;100.00;102396.25;5095663;28;20501;-56
2022/10/11 01:31:39;;;;;;;11.82;2.83;;;;;;;5.37;100.00;102391.81;5095682;28;20057;-57
2022/10/11 01:34:11;;;;;;;14.60;2.75;;;;;;;5.42;100.00;102405.78;5094401;28;20028;-55
2022/10/11 01:36:37;;;;;;;;;;;;;;;5.37;100.00;102399.66;5095768;28;20055;-59
2022/10/11 01:39:07;;;;;;;14.30;2.78;;;;;;;4.95;100.00;102332.94;5095518;28;19919;-60
2022/10/11 01:41:37;;;;;;;8.40;2.75;;;;;;;5.34;100.00;102400.44;5094264;28;20028;-57
2022/10/11 01:44:04;;;;;;;9.95;3.15;;;;;;;5.02;100.00;102334.75;5093808;28;20048;-58
2022/10/11 01:46:30;;;;;;;11.02;3.15;;;;;;;5.46;100.00;102416.28;5094321;28;20113;-61
2022/10/11 01:48:57;;;;;;;15.30;3.70;;;;;;;5.36;100.00;102393.53;5093903;28;20071;-60
2022/10/11 01:51:29;;;;;;;19.77;2.90;;;;;;;5.41;100.00;102404.03;5093866;28;20085;-57
2022/10/11 01:54:07;;;;;;;12.05;2.65;;;;;;;5.40;100.00;102403.16;5094114;28;20020;-56
2022/10/11 01:56:48;;;;;;;12.02;2.78;;;;;;;5.06;100.00;102338.28;5093858;28;20525;-55
2022/10/11 01:59:38;;;;;;;11.73;3.17;;;;;;;5.47;100.00;102411.94;5093701;28;20032;-60
2022/10/11 02:02:36;;;;;;;12.00;3.22;;;;;;;5.37;100.00;102390.06;5095141;28;20039;-58
2022/10/11 02:05:07;;;;;;;11.82;3.40;;;;;;;5.51;100.00;102417.25;5093850;28;20073;-57
2022/10/11 02:07:41;;;;;;;13.27;3.15;;;;;;;5.41;100.00;102386.63;5093570;28;20081;-59
2022/10/11 02:10:19;;;;;;;12.15;2.65;;;;;;;5.53;100.00;102412.03;5095103;28;20058;-57
2022/10/11 02:13:00;;;;;;;10.40;2.47;;;;;;;5.45;100.00;102404.13;5094886;28;20035;-58
2022/10/11 02:15:27;;;;;;;9.90;2.80;;;;;;;5.52;100.00;102389.38;5093555;28;20411;-56
2022/10/11 02:17:55;;;;;;;15.98;2.72;;;;;;;5.62;100.00;102407.81;5093578;28;20051;-57
2022/10/11 02:20:23;;;;;;;14.18;2.95;;;;;;;5.24;100.00;102332.44;5093469;28;20040;-56
2022/10/11 02:22:53;;;;;;;9.70;2.70;;;;;;;5.24;100.00;102328.09;5093409;28;20063;-61
2022/10/11 02:25:23;;;;;;;10.88;2.58;;;;;;;5.33;100.00;102350.84;5093521;28;20034;-60
2022/10/11 02:27:50;;;;;;;8.60;2.25;;;;;;;5.40;100.00;102365.75;5093489;28;20493;-56
2022/10/11 02:30:16;;;;;;;8.15;2.30;;;;;;;5.58;100.00;102406.00;5092935;28;20406;-58
2022/10/11 02:32:43;;;;;;;10.73;2.63;;;;;;;5.09;100.00;102323.56;5093069;28;20048;-54
2022/10/11 02:35:09;;;;;;;9.57;2.40;;;;;;;5.51;100.00;102392.88;5093480;28;20117;-54
2022/10/11 02:37:47;;;;;;;8.48;2.55;;;;;;;5.09;100.00;102328.78;5093133;28;20085;-61
2022/10/11 02:40:22;;;;;;;13.45;2.05;;;;;;;5.46;100.00;102416.28;5093136;28;20411;-58
2022/10/11 02:42:52;;;;;;;8.13;3.08;;;;;;;5.03;100.00;102336.50;5092819;28;20032;-58
2022/10/11 02:45:23;;;;;;;11.00;2.13;;;;;;;5.38;100.00;102411.81;5094070;28;20430;-55
2022/10/11 02:47:48;;;;;;;;;;;;;;;5.37;100.00;102407.47;5093556;28;20116;-59
2022/10/11 02:50:14;;;;;;;12.23;2.57;;;;;;;5.32;100.00;102401.28;5093998;28;20371;-57
2022/10/11 02:52:39;;;;;;;12.13;2.85;;;;;;;5.29;100.00;102411.69;5092797;28;20293;-60
2022/10/11 02:55:06;;;;;;;11.50;2.70;;;;;;;5.06;100.00;102369.59;5094149;28;20085;-59
2022/10/11 02:57:31;;;;;;;19.90;3.83;;;;;;;5.22;100.00;102405.53;5092507;28;20036;-60
2022/10/11 02:59:56;;;;;;;9.55;2.88;;;;;;;5.20;100.00;102408.94;5092572;28;20077;-57
2022/10/11 03:02:22;;;;;;;10.75;3.00;;;;;;;5.19;100.00;102415.03;5093994;28;20028;-58
2022/10/11 03:04:47;;;;;;;10.85;2.40;;;;;;;4.80;100.00;102357.91;5093984;28;20043;-58
2022/10/11 03:07:13;;;;;;;12.93;2.88;;;;;;;4.77;100.00;102360.47;5094055;28;20040;-57
2022/10/11 03:09:39;;;;;;;12.85;3.47;;;;;;;5.09;100.00;102414.91;5093715;28;20039;-58
2022/10/11 03:12:05;;;;;;;12.98;2.90;;;;;;;4.68;100.00;102349.88;5075521;28;20376;-54
2022/10/11 03:14:30;;;;;;;9.88;3.00;;;;;;;5.04;100.00;102413.09;5092435;28;20036;-57
2022/10/11 03:16:55;;;;;;;11.80;3.35;;;;;;;4.50;100.00;102330.50;5093601;28;20438;-57
2022/10/11 03:19:21;;;;;;;14.40;3.50;;;;;;;4.96;100.00;102418.16;5093704;28;20032;-59
2022/10/11 03:21:46;;;;;;;9.35;3.13;;;;;;;4.96;100.00;102422.53;5093393;28;20048;-57
2022/10/11 03:24:11;;;;;;;10.95;2.97;;;;;;;4.88;100.00;102419.78;5093423;28;20483;-52
2022/10/11 03:26:37;;;;;;;14.07;3.20;;;;;;;4.90;100.00;102417.22;5093286;28;20039;-57
2022/10/11 03:29:02;;;;;;;10.55;3.70;;;;;;;4.44;100.00;102346.03;5091594;28;20028;-57
2022/10/11 03:31:27;;;;;;;10.43;3.22;;;;;;;4.74;100.00;102396.94;5093377;28;20040;-54
2022/10/11 03:33:52;;;;;;;10.65;3.83;;;;;;;4.86;100.00;102418.00;5092072;28;20032;-58
2022/10/11 03:36:18;;;;;;;14.88;3.30;;;;;;;4.86;100.00;102418.00;5093157;28;20122;-60
2022/10/11 03:38:43;;;;;;;12.57;3.80;;;;;;;4.82;100.00;102418.81;5093181;28;20132;-60
2022/10/11 03:41:09;;;;;;;9.98;3.22;;;;;;;4.83;100.00;102429.28;5092935;28;20441;-58
2022/10/11 03:43:34;;;;;;;10.75;3.53;;;;;;;4.40;100.00;102357.28;5091965;28;20028;-61
2022/10/11 03:45:59;;;;;;;9.63;3.33;;;;;;;4.80;100.00;102428.34;5093280;28;20028;-63
2022/10/11 03:48:25;;;;;;;7.35;2.92;;;;;;;4.76;100.00;102422.19;5093231;28;20043;-61
2022/10/11 03:50:51;;;;;;;10.45;3.40;;;;;;;4.35;100.00;102356.31;5074790;28;20479;-58
2022/10/11 03:53:16;;;;;;;10.48;3.80;;;;;;;4.49;100.00;102387.84;5091784;28;20043;-60
2022/10/11 03:55:41;;;;;;;10.50;3.47;;;;;;;4.68;100.00;102420.31;5092968;28;20431;-59
2022/10/11 03:58:07;;;;;;;10.27;3.85;;;;;;;4.70;100.00;102424.69;5092838;28;20036;-57
2022/10/11 04:00:33;;;;;;;10.30;3.83;;;;;;;4.63;100.00;102421.97;5091742;28;20111;-57
2022/10/11 04:02:59;;;;;;;12.70;3.67;;;;;;;4.72;100.00;102433.44;5093151;28;20044;-61
2022/10/11 04:05:24;;;;;;;13.85;4.55;;;;;;;4.34;100.00;102361.50;5092773;28;20081;-57
2022/10/11 04:07:50;;;;;;;11.15;4.03;;;;;;;4.49;100.00;102390.44;5093073;28;20505;-57
2022/10/11 04:10:15;;;;;;;11.45;4.55;;;;;;;4.51;100.00;102392.22;5092819;28;20475;-60
2022/10/11 04:12:41;;;;;;;9.23;4.20;;;;;;;4.32;100.00;102366.69;5092364;28;20032;-61
2022/10/11 04:15:06;;;;;;;12.25;4.20;;;;;;;4.34;100.00;102370.22;5092807;28;20498;-58
2022/10/11 04:17:32;;;;;;;14.38;3.85;;;;;;;4.71;100.00;102444.72;5091421;28;20437;-60
2022/10/11 04:19:57;;;;;;;10.80;3.53;;;;;;;4.51;100.00;102417.44;5091334;28;20102;-57
2022/10/11 04:22:23;;;;;;;12.23;4.75;;;;;;;4.68;100.00;102449.88;5092502;28;20507;-57
2022/10/11 04:24:48;;;;;;;12.60;3.80;;;;;;;4.30;100.00;102386.63;5092604;28;20127;-60
2022/10/11 04:27:13;;;;;;;8.43;4.15;;;;;;;4.31;100.00;102382.31;5092647;28;20129;-61
2022/10/11 04:29:38;;;;;;;10.35;3.88;;;;;;;4.54;100.00;102415.75;5092524;28;20471;-58
2022/10/11 04:32:04;;;;;;;15.00;4.72;;;;;;;4.28;100.00;102370.09;5092065;28;20039;-54
2022/10/11 04:34:30;;;;;;;19.70;5.15;;;;;;;4.37;100.00;102378.09;5091220;28;20399;-57
2022/10/11 04:36:55;;;;;;;10.43;4.25;;;;;;;4.82;100.00;102450.09;5092331;28;20032;-59
2022/10/11 04:39:20;;;;;;;9.55;4.20;;;;;;;4.90;100.00;102448.53;5092123;28;20028;-60
2022/10/11 04:41:46;;;;;;;8.98;3.83;;;;;;;5.00;100.00;102456.53;5092433;28;20040;-60
2022/10/11 04:44:11;;;;;;;15.80;5.13;;;;;;;4.95;100.00;102419.03;5092406;28;20031;-60
2022/10/11 04:46:36;;;;;;;14.93;5.32;;;;;;;5.23;100.00;102441.19;5092452;28;20437;-58
2022/10/11 04:49:02;;;;;;;11.25;5.10;;;;;;;5.45;100.00;102478.97;5091038;28;20032;-58
2022/10/11 04:51:28;;;;;;;15.45;5.03;;;;;;;5.18;100.00;102390.66;5091912;28;20052;-61
2022/10/11 04:53:53;;;;;;;13.85;4.85;;;;;;;5.33;100.00;102392.63;5093556;28;20127;-58
2022/10/11 04:56:18;;;;;;;15.85;5.57;;;;;;;5.43;100.00;102400.59;5096281;28;20036;-61
2022/10/11 04:58:46;;;;;;;11.23;4.57;;;;;;;5.47;100.00;102385.84;5096191;28;20093;-58
2022/10/11 05:01:12;;;;;;;12.13;4.47;;;;;;;5.93;100.00;102461.34;5095366;28;20035;-60
2022/10/11 05:03:37;;;;;;;13.85;5.50;;;;;;;5.61;100.00;102400.81;5096334;28;20168;-57
2022/10/11 05:06:03;;;;;;;17.80;5.05;;;;;;;5.85;100.00;102441.19;5096165;28;20032;-60
2022/10/11 05:08:28;;;;;;;11.00;4.10;;;;;;;5.63;100.00;102393.03;5096403;28;20040;-60
2022/10/11 05:11:02;;;;;;;15.38;4.63;;;;;;;5.66;100.00;102399.13;5094722;28;20539;-58
2022/10/11 05:13:28;;;;;;;17.88;4.88;;;;;;;6.02;100.00;102458.84;5096361;28;20028;-57
2022/10/11 05:15:54;;;;;;;12.60;4.60;;;;;;;6.01;100.00;102449.25;5094898;28;20027;-59
2022/10/11 05:18:19;;;;;;;15.43;4.88;;;;;;;5.99;100.00;102458.81;5094563;28;20088;-59
2022/10/11 05:20:45;;;;;;;16.20;4.95;;;;;;;5.66;100.00;102393.06;5094560;28;20039;-60
2022/10/11 05:23:10;;;;;;;13.68;5.28;;;;;;;5.77;100.00;102419.31;5094647;28;20149;-60
2022/10/11 05:25:36;;;;;;;20.02;6.15;;;;;;;5.47;100.00;102373.66;5095705;28;20036;-57
2022/10/11 05:28:01;;;;;;;17.02;4.65;;;;;;;5.86;100.00;102451.69;5094671;28;20040;-60
2022/10/11 05:30:26;;;;;;;11.43;4.35;;;;;;;6.01;100.00;102487.59;5095758;28;20040;-56
2022/10/11 05:32:52;;;;;;;14.93;4.45;;;;;;;5.89;100.00;102474.38;5094333;28;20036;-56
2022/10/11 05:35:17;;;;;;;18.60;5.22;;;;;;;5.89;100.00;102490.06;5093264;28;20411;-56
2022/10/11 05:37:42;;;;;;;10.57;4.70;;;;;;;5.46;100.00;102429.34;5091765;28;20032;-57
2022/10/11 05:40:09;;;;;;;11.70;5.03;;;;;;;5.75;100.00;102481.97;5080551;28;20040;-58
2022/10/11 05:42:35;;;;;;;13.55;4.45;;;;;;;5.35;100.00;102435.28;5076101;28;20033;-57
2022/10/11 05:45:00;;;;;;;13.15;5.05;;;;;;;5.64;100.00;102491.41;5075371;28;20460;-59
2022/10/11 05:47:26;;;;;;;19.45;4.85;;;;;;;5.37;100.00;102455.34;5079115;28;20636;-57
2022/10/11 05:49:51;;;;;;;13.63;4.60;;;;;;;5.52;100.00;102491.25;5077279;28;20068;-58
2022/10/11 05:52:19;;;;;;;16.60;4.28;;;;;;;5.32;100.00;102471.78;5074941;28;20115;-60
2022/10/11 05:54:44;;;;;;;15.85;4.93;;;;;;;5.44;100.00;102498.97;5075422;28;20407;-55
2022/10/11 05:57:10;;;;;;;17.48;5.00;;;;;;;5.44;100.00;102508.53;5085555;28;20037;-57
2022/10/11 05:59:35;;;;;;;18.40;4.15;;;;;;;5.36;100.00;102492.75;5073967;28;20036;-54
2022/10/11 06:02:00;;;;;;;18.70;5.03;;;;;;;5.43;100.00;102509.41;5074571;28;20028;-58
2022/10/11 06:04:26;;;;;;;15.50;6.55;;;;;;;5.05;100.00;102444.41;5074816;28;20040;-56
2022/10/11 06:06:51;;;;;;;20.27;7.63;;;;;;;5.41;100.00;102516.31;5073984;28;20464;-61
2022/10/11 06:09:16;;;;;;;20.48;6.75;;;;;;;5.07;100.00;102460.09;5074827;28;20113;-54
2022/10/11 06:11:42;;;;;;;20.13;6.07;;;;;;;5.37;100.00;102507.56;5074272;28;20086;-57
2022/10/11 06:14:08;;;;;;;15.15;4.97;;;;;;;5.38;100.00;102514.53;5074838;28;20047;-60
2022/10/11 06:16:33;;;;;;;16.33;5.05;;;;;;;5.03;100.00;102451.34;5073280;28;20029;-54
2022/10/11 06:18:59;;;;;;;19.15;5.90;;;;;;;5.14;100.00;102471.53;5074339;28;20036;-59
2022/10/11 06:21:24;;;;;;;12.80;5.53;;;;;;;5.42;100.00;102528.53;5073019;28;20045;-58
2022/10/11 06:23:50;;;;;;;19.42;6.38;;;;;;;5.01;100.00;102445.25;5072676;28;20409;-59
2022/10/11 06:26:16;;;;;;;16.50;5.38;;;;;;;5.41;100.00;102516.31;5073172;28;20036;-58
2022/10/11 06:28:42;;;;;;;18.67;5.80;;;;;;;5.08;100.00;102454.00;5089981;28;20020;-60
2022/10/11 06:31:08;;;;;;;12.25;5.00;;;;;;;5.21;100.00;102458.59;5072596;28;20110;-58
2022/10/11 06:33:34;;;;;;;17.50;5.63;;;;;;;5.64;100.00;102534.09;5073906;28;20037;-58
2022/10/11 06:36:02;;;;;;;16.83;5.28;;;;;;;5.74;100.00;102531.63;5074287;28;20035;-61
2022/10/11 06:38:27;;;;;;;17.35;5.60;;;;;;;5.85;100.00;102530.03;5073425;28;20058;-57
2022/10/11 06:40:52;;;;;;;19.17;5.00;;;;;;;5.91;100.00;102524.91;5072799;28;20464;-59
2022/10/11 06:43:18;;;;;;;21.48;6.07;;;;;;;6.02;100.00;102552.06;5073901;28;20047;-57
2022/10/11 06:45:43;;;;;;;20.90;5.60;;;;;;;5.90;100.00;102504.88;5072577;28;20075;-59
2022/10/11 06:48:08;;;;;;;16.40;5.72;;;;;;;6.14;100.00;102524.38;5073873;28;20044;-60
2022/10/11 06:50:34;;;;;;;21.63;5.97;;;;;;;5.83;100.00;102454.25;5073739;28;20116;-60
2022/10/11 06:52:59;;;;;;;13.70;4.93;;;;;;;6.43;100.00;102548.25;5072336;28;20079;-60
2022/10/11 06:55:24;;;;;;;21.60;5.82;;;;;;;6.56;100.00;102546.66;5073937;28;20082;-59
2022/10/11 06:57:50;;;;;;;16.05;5.80;;;;;;;6.70;100.00;102537.22;5073776;28;20044;-59
2022/10/11 07:00:15;;;;;;;20.75;6.22;;;;;;;6.74;100.00;102523.31;5073881;28;20038;-57
2022/10/11 07:02:41;;;;;;;16.60;5.68;;;;;;;7.04;100.00;102554.13;5074059;28;20041;-58
2022/10/11 07:05:07;;;;;;;19.25;6.03;;;;;;;6.83;100.00;102489.34;5073480;28;20040;-57
2022/10/11 07:07:32;;;;;;;19.85;6.38;;;;;;;6.98;100.00;102481.63;5073279;28;20033;-55
2022/10/11 07:09:58;;;;;;;20.20;5.30;;;;;;;7.16;100.00;102487.03;5073356;28;20031;-60
2022/10/11 07:12:23;;;;;;;16.38;5.90;;;;;;;7.67;100.00;102545.91;5073612;28;20407;-57
2022/10/11 07:14:48;;;;;;;17.05;6.07;;;;;;;7.85;100.00;102551.28;5073578;28;20419;-53
2022/10/11 07:17:14;;;;;;;17.77;5.97;;;;;;;8.05;100.00;102557.50;5073588;28;20037;-61
2022/10/11 07:19:39;;;;;;;18.52;5.60;;;;;;;7.84;100.00;102497.06;5073301;28;20123;-60
2022/10/11 07:22:04;;;;;;;15.20;5.13;;;;;;;8.30;100.00;102559.41;5073077;28;20083;-61
2022/10/11 07:24:29;;;;;;;23.15;5.50;;;;;;;8.12;100.00;102504.19;5073201;28;20032;-57
2022/10/11 07:26:55;;;;;;;14.25;5.03;;;;;;;8.54;100.00;102552.47;5073399;28;20036;-59
2022/10/11 07:29:20;;;;;;;17.02;5.15;;;;;;;8.76;100.00;102563.03;5072014;28;20438;-54
2022/10/11 07:31:45;;;;;;;20.15;5.03;;;;;;;8.79;100.00;102535.91;5073283;28;20101;-59
2022/10/11 07:34:11;;;;;;;11.85;4.90;;;;;;;9.05;100.00;102561.34;5072928;28;20545;-60
2022/10/11 07:36:36;;;;;;;18.98;5.22;;;;;;;9.13;100.00;102556.13;5071547;28;20036;-60
2022/10/11 07:39:04;;;;;;;18.45;5.55;;;;;;;9.03;100.00;102502.69;5072860;28;20090;-60
2022/10/11 07:41:29;;;;;;;15.48;5.30;;;;;;;9.44;100.00;102549.09;5088741;28;20040;-56
2022/10/11 07:43:54;;;;;;;19.25;4.47;;;;;;;9.37;100.00;102507.94;5072639;28;20996;-58
2022/10/11 07:46:20;;;;;;;14.88;5.18;;;;;;;9.73;100.00;102573.59;5072730;28;20119;-58
2022/10/11 07:48:45;;;;;;;11.02;4.45;;;;;;;9.75;100.00;102561.31;5072766;28;20036;-60
2022/10/11 07:51:15;;;;;;;12.88;5.30;;;;;;;9.80;100.00;102567.47;5071305;28;20430;-56
2022/10/11 07:53:42;;;;;;;14.68;6.03;;;;;;;9.88;100.00;102577.97;5071185;28;20258;-56
2022/10/11 07:56:11;;;;;;;17.40;5.82;;;;;;;9.70;100.00;102523.66;5086659;28;20024;-56
2022/10/11 07:58:36;;;;;;;12.20;5.00;;;;;;;10.01;100.00;102564.75;5069742;28;20356;-60
2022/10/11 08:01:01;;;;;;;15.57;5.55;;;;;;;10.02;100.00;102587.56;5070793;28;20036;-59
2022/10/11 08:03:27;;;;;;;14.82;5.40;;;;;;;9.63;100.00;102507.00;5070790;28;20503;-58
2022/10/11 08:05:52;;;;;;;13.13;4.57;;;;;;;9.98;100.00;102567.41;5070719;28;20041;-55
2022/10/11 08:08:18;;;;;;;13.13;4.38;;;;;;;9.61;100.00;102516.66;5069758;28;20037;-59
2022/10/11 08:10:43;;;;;;;11.20;4.25;;;;;;;10.05;100.00;102578.78;5070978;28;20051;-59
2022/10/11 08:13:09;;;;;;;12.93;4.88;;;;;;;9.75;100.00;102515.78;5070959;28;20495;-58
2022/10/11 08:15:34;;;;;;;11.32;4.93;;;;;;;9.75;100.00;102511.34;5086431;28;20040;-57
2022/10/11 08:17:59;;;;;;;12.82;4.32;;;;;;;10.00;100.00;102536.72;5070882;28;20115;-59
2022/10/11 08:20:25;;;;;;;13.93;5.25;;;;;;;9.98;100.00;102514.78;5069292;28;20040;-60
2022/10/11 08:22:50;;;;;;;13.75;3.85;;;;;;;10.43;100.00;102569.03;5070481;28;20603;-58
2022/10/11 08:25:15;;;;;;;10.05;3.75;;;;;;;10.70;100.00;102590.00;5070628;28;20406;-59
2022/10/11 08:27:41;;;;;;;13.82;4.30;;;;;;;10.88;100.00;102580.22;5070733;28;20036;-59
2022/10/11 08:30:07;;;;;;;9.90;3.92;;;;;;;10.86;100.00;102556.50;5070354;28;20129;-59
2022/10/11 08:32:32;;;;;;;10.07;3.70;;;;;;;11.27;100.00;102593.13;5070720;28;20036;-57
2022/10/11 08:34:57;;;;;;;9.40;3.85;;;;;;;11.53;100.00;102601.69;5070661;28;20140;-58
2022/10/11 08:37:22;;;;;;;12.80;4.00;;;;;;;11.75;100.00;102613.00;5086173;28;20040;-57
2022/10/11 08:39:48;;;;;;;15.48;3.50;;;;;;;11.80;100.00;102555.78;5070683;28;20123;-59
2022/10/11 08:42:34;;;;;;;13.23;4.43;;;;;;;12.26;100.00;102572.84;5070365;28;20036;-57
2022/10/11 08:45:04;;;;;;;10.52;3.53;;;;;;;12.95;100.00;102633.63;5069477;28;20086;-60
2022/10/11 08:47:35;;;;;;;14.65;4.22;;;;;;;13.39;100.00;102644.44;5069480;28;20124;-58
2022/10/11 08:50:03;;;;;;;15.15;3.55;;;;;;;13.84;100.00;102658.69;5085900;28;20086;-60
2022/10/11 08:52:47;;;;;;;10.57;3.55;;;;;;;14.22;100.00;102662.41;5070542;28;20402;-59
2022/10/11 08:55:27;;;;;;;11.45;3.17;;;;;;;14.65;100.00;102671.34;5070602;28;20106;-56
2022/10/11 08:57:55;;;;;;;10.52;3.08;;;;;;;15.41;100.00;102680.28;5070285;28;20395;-58
2022/10/11 09:00:21;;;;;;;11.05;3.85;;;;;;;16.32;100.00;102700.13;5068987;28;20491;-54
2022/10/11 09:03:00;;;;;;;8.98;3.17;;;;;;;17.28;100.00;102716.88;5069132;28;20426;-57
2022/10/11 09:05:33;;;;;;;10.40;3.45;;;;;;;18.34;100.00;102740.06;5070425;28;20294;-57
2022/10/11 09:08:09;;;;;;;8.75;3.60;;;;;;;19.02;100.00;102750.97;5069491;28;20032;-58
2022/10/11 09:11:16;;;;;;;10.60;3.10;;;;;;;19.90;100.00;102743.03;5069195;28;20166;-57
2022/10/11 09:13:42;;;;;;;10.95;3.45;;;;;;;20.70;100.00;102752.94;5070411;28;20467;-57
2022/10/11 09:16:29;;;;;;;8.45;2.92;;;;;;;21.15;100.00;102742.00;5070340;28;20032;-59
2022/10/11 09:19:13;;;;;;;11.73;3.47;;;;;;;21.63;100.00;102738.78;5070716;28;20565;-59
2022/10/11 09:21:52;;;;;;;7.45;2.83;;;;;;;21.92;100.00;102721.28;5070044;28;20136;-52
2022/10/11 09:24:55;;;;;;;6.50;2.25;;;;;;;22.00;100.00;102747.75;5068589;28;20120;-53
2022/10/11 09:27:30;;;;;;;6.68;3.08;;;;;;;22.56;100.00;102743.03;5070145;28;20048;-56
2022/10/11 09:30:10;;;;;;;7.10;2.60;;;;;;;22.60;100.00;102715.06;5070131;28;20162;-58
2022/10/11 09:32:39;;;;;;;10.35;2.50;;;;;;;23.65;100.00;102757.66;5085402;28;20111;-57
2022/10/11 09:35:17;;;;;;;6.78;2.22;;;;;;;23.83;100.00;102743.16;5085882;28;20106;-59
2022/10/11 09:37:58;;;;;;;7.68;2.50;;;;;;;23.17;100.00;102756.75;5069825;28;20127;-56
2022/10/11 09:40:43;;;;;;;9.63;2.83;;;;;;;22.31;100.00;102742.53;5086362;28;20043;-56
2022/10/11 09:43:09;;;;;;;7.95;2.63;;;;;;;21.57;100.00;102747.13;5073601;28;20036;-53
2022/10/11 09:45:35;;;;;;;8.77;2.50;;;;;;;20.45;100.00;102754.97;5072175;28;20126;-58
2022/10/11 09:48:01;;;;;;;11.13;2.53;;;;;;;19.51;100.00;102766.88;5073377;28;20079;-57
2022/10/11 09:50:29;;;;;;;9.10;2.70;;;;;;;18.67;100.00;102762.91;5089067;28;20040;-58
2022/10/11 09:52:58;;;;;;;12.93;2.85;;;;;;;18.50;100.00;102698.66;5088739;28;20040;-60
2022/10/11 09:55:52;;;;;;;9.90;2.60;;;;;;;19.39;100.00;102758.47;5073355;28;20055;-58
2022/10/11 09:58:31;;;;;;;8.73;2.30;;;;;;;20.61;100.00;102756.03;5072199;28;20024;-54
2022/10/11 10:01:03;;;;;;;8.05;2.72;;;;;;;20.91;100.00;102726.16;5073618;28;20032;-59
2022/10/11 10:03:31;;;;;;;5.68;1.92;;;;;;;22.10;100.00;102752.53;5073378;28;20036;-58
2022/10/11 10:06:24;;;;;;;8.77;2.92;;;;;;;22.82;100.00;102741.66;5073236;28;20108;-56
2022/10/11 10:08:49;;;;;;;6.38;2.47;;;;;;;23.65;100.00;102747.75;5072880;28;20044;-55
2022/10/11 10:11:15;;;;;;;6.90;2.10;;;;;;;23.33;100.00;102701.19;5055157;28;20066;-60
2022/10/11 10:13:44;;;;;;;9.75;3.03;;;;;;;23.14;100.00;102727.34;5072971;28;20024;-57
2022/10/11 10:16:30;;;;;;;7.70;2.08;;;;;;;21.85;100.00;102741.28;5071729;28;20029;-55
2022/10/11 10:18:59;;;;;;;7.82;2.10;;;;;;;20.55;100.00;102734.00;5088607;28;20042;-57
2022/10/11 10:21:28;;;;;;;7.88;3.17;;;;;;;19.37;100.00;102746.94;5071620;28;20038;-56
2022/10/11 10:23:54;;;;;;;8.48;2.50;;;;;;;18.62;100.00;102748.00;5073067;28;20514;-59
2022/10/11 10:26:25;;;;;;;9.00;2.00;;;;;;;17.75;100.00;102689.66;5071743;28;20044;-55
2022/10/11 10:28:53;;;;;;;9.98;1.98;;;;;;;17.69;100.00;102742.22;5088494;28;20029;-59
2022/10/11 10:31:24;;;;;;;8.88;2.17;;;;;;;17.43;100.00;102687.13;5072643;28;20479;-57
2022/10/11 10:33:52;;;;;;;9.82;2.28;;;;;;;19.25;100.00;102740.28;5072577;28;20028;-57
2022/10/11 10:36:22;;;;;;;10.10;1.80;;;;;;;19.78;100.00;102721.28;5088650;28;20056;-55
2022/10/11 10:38:58;;;;;;;6.23;2.07;;;;;;;20.27;100.00;102723.66;5072586;28;20036;-58
2022/10/11 10:41:24;;;;;;;10.07;2.42;;;;;;;20.19;100.00;102741.81;5072710;28;20072;-57
2022/10/11 10:43:57;;;;;;;8.20;2.30;;;;;;;21.00;100.00;102741.78;5072402;28;20044;-58
2022/10/11 10:46:34;;;;;;;6.95;2.20;;;;;;;22.04;100.00;102754.66;5070853;28;20024;-54
2022/10/11 10:49:23;;;;;;;5.80;2.08;;;;;;;22.69;100.00;102735.22;5072525;28;20115;-53
2022/10/11 10:52:04;;;;;;;7.05;1.95;;;;;;;23.06;100.00;102744.84;5062161;28;20163;-55
2022/10/11 10:54:37;;;;;;;;;;;;;;;23.69;94.77;102730.50;5072620;28;20036;-55
2022/10/11 10:57:12;;;;;;;10.52;2.42;;;;;;;24.12;91.92;102725.34;5072256;28;19923;-57
2022/10/11 10:59:44;;;;;;;7.90;2.15;;;;;;;24.57;93.68;102733.34;5071022;28;20043;-55
2022/10/11 11:02:16;;;;;;;5.68;1.90;;;;;;;25.21;80.85;102732.03;5072255;28;20119;-58
2022/10/11 11:04:46;;;;;;;5.45;1.73;;;;;;;25.72;74.48;102724.13;5054242;28;20040;-56
2022/10/11 11:07:39;;;;;;;5.57;1.80;;;;;;;25.92;73.99;102722.78;5070557;28;20272;-56
2022/10/11 11:10:12;;;;;;;7.05;2.35;;;;;;;25.98;71.85;102708.00;5071900;28;20036;-57
2022/10/11 11:13:28;;;;;;;10.85;2.38;;;;;;;27.14;68.31;102723.28;5070518;28;20028;-57
2022/10/11 11:16:16;;;;;;;8.00;1.92;;;;;;;26.17;69.66;102725.59;5037476;28;20048;-59
2022/10/11 11:18:56;;;;;;;6.35;2.05;;;;;;;24.65;74.94;102671.78;5070464;28;20035;-56
2022/10/11 11:21:29;;;;;;;10.75;2.22;;;;;;;22.89;88.11;102735.88;5070198;28;20372;-57
2022/10/11 11:24:12;;;;;;;9.45;2.28;;;;;;;20.81;100.00;102714.97;5071179;28;20044;-56
2022/10/11 11:26:50;;;;;;;7.95;2.45;;;;;;;19.87;100.00;102723.56;5070110;28;20031;-58